sensor_id;sensor_type;location;lat;lon;timestamp;pressure;altitude;pressure_sealevel;temperature;humidity
59106;BME280;44891;50.204;8.132;2023-05-01T00:04:05;98355.63;;;8.59;82.52
59106;BME280;44891;50.204;8.132;2023-05-01T00:08:08;98361.06;;;8.58;82.14
59106;BME280;44891;50.204;8.132;2023-05-01T00:12:10;98354.59;;;8.60;82.38
59106;BME280;44891;50.204;8.132;2023-05-01T00:16:12;98354.31;;;8.50;83.19
59106;BME280;44891;50.204;8.132;2023-05-01T00:20:16;98337.59;;;8.51;82.94
59106;BME280;44891;50.204;8.132;2023-05-01T00:24:19;98342.84;;;8.51;82.80
59106;BME280;44891;50.204;8.132;2023-05-01T00:28:21;98333.97;;;8.34;83.79
59106;BME280;44891;50.204;8.132;2023-05-01T00:32:23;98337.34;;;8.41;83.85
59106;BME280;44891;50.204;8.132;2023-05-01T00:36:24;98331.31;;;8.40;83.75
59106;BME280;44891;50.204;8.132;2023-05-01T00:40:28;98319.72;;;8.48;82.90
59106;BME280;44891;50.204;8.132;2023-05-01T00:44:30;98316.88;;;8.50;83.09
59106;BME280;44891;50.204;8.132;2023-05-01T00:48:32;98315.06;;;8.32;83.15
59106;BME280;44891;50.204;8.132;2023-05-01T00:52:34;98309.69;;;8.45;84.21
59106;BME280;44891;50.204;8.132;2023-05-01T00:56:38;98308.78;;;8.39;83.69
59106;BME280;44891;50.204;8.132;2023-05-01T01:00:39;98304.03;;;8.48;83.51
59106;BME280;44891;50.204;8.132;2023-05-01T01:04:42;98301.75;;;8.52;83.44
59106;BME280;44891;50.204;8.132;2023-05-01T01:08:47;98299.09;;;8.40;83.57
59106;BME280;44891;50.204;8.132;2023-05-01T01:12:53;98298.56;;;8.50;83.64
59106;BME280;44891;50.204;8.132;2023-05-01T01:17:02;98288.84;;;8.38;84.53
59106;BME280;44891;50.204;8.132;2023-05-01T01:21:06;98269.91;;;8.55;83.30
59106;BME280;44891;50.204;8.132;2023-05-01T01:25:23;98275.94;;;8.55;83.29
59106;BME280;44891;50.204;8.132;2023-05-01T01:29:38;98271.38;;;8.51;85.01
59106;BME280;44891;50.204;8.132;2023-05-01T01:33:55;98264.28;;;8.39;85.45
59106;BME280;44891;50.204;8.132;2023-05-01T01:38:02;98273.88;;;8.46;84.24
59106;BME280;44891;50.204;8.132;2023-05-01T01:42:07;98270.56;;;8.50;83.52
59106;BME280;44891;50.204;8.132;2023-05-01T01:46:10;98271.13;;;8.40;83.77
59106;BME280;44891;50.204;8.132;2023-05-01T01:50:14;98266.91;;;8.39;84.22
59106;BME280;44891;50.204;8.132;2023-05-01T01:54:18;98264.63;;;8.13;85.93
59106;BME280;44891;50.204;8.132;2023-05-01T01:58:22;98262.47;;;8.22;85.69
59106;BME280;44891;50.204;8.132;2023-05-01T02:02:26;98252.44;;;8.18;86.80
59106;BME280;44891;50.204;8.132;2023-05-01T02:06:31;98260.00;;;8.27;85.97
59106;BME280;44891;50.204;8.132;2023-05-01T02:10:36;98252.25;;;8.20;85.81
59106;BME280;44891;50.204;8.132;2023-05-01T02:14:39;98248.91;;;8.13;86.84
59106;BME280;44891;50.204;8.132;2023-05-01T02:18:41;98249.44;;;8.03;86.69
59106;BME280;44891;50.204;8.132;2023-05-01T02:22:46;98244.34;;;8.08;87.15
59106;BME280;44891;50.204;8.132;2023-05-01T02:26:50;98244.16;;;8.22;86.49
59106;BME280;44891;50.204;8.132;2023-05-01T02:30:52;98246.38;;;8.06;86.29
59106;BME280;44891;50.204;8.132;2023-05-01T02:34:54;98246.00;;;7.73;88.31
59106;BME280;44891;50.204;8.132;2023-05-01T02:38:58;98235.31;;;7.93;87.78
59106;BME280;44891;50.204;8.132;2023-05-01T02:43:00;98239.28;;;7.95;87.07
59106;BME280;44891;50.204;8.132;2023-05-01T02:47:06;98235.06;;;7.94;87.75
59106;BME280;44891;50.204;8.132;2023-05-01T02:51:09;98221.91;;;8.01;86.78
59106;BME280;44891;50.204;8.132;2023-05-01T02:55:13;98232.59;;;7.99;86.72
59106;BME280;44891;50.204;8.132;2023-05-01T02:59:16;98225.75;;;7.98;87.34
59106;BME280;44891;50.204;8.132;2023-05-01T03:03:17;98228.34;;;8.16;85.94
59106;BME280;44891;50.204;8.132;2023-05-01T03:07:19;98217.91;;;7.98;87.40
59106;BME280;44891;50.204;8.132;2023-05-01T03:11:22;98215.50;;;7.97;87.89
59106;BME280;44891;50.204;8.132;2023-05-01T03:15:24;98221.13;;;8.12;87.07
59106;BME280;44891;50.204;8.132;2023-05-01T03:19:26;98225.28;;;8.20;86.15
59106;BME280;44891;50.204;8.132;2023-05-01T03:23:28;98210.88;;;8.29;86.16
59106;BME280;44891;50.204;8.132;2023-05-01T03:27:31;98210.63;;;8.30;86.71
59106;BME280;44891;50.204;8.132;2023-05-01T03:31:33;98211.09;;;8.27;86.80
59106;BME280;44891;50.204;8.132;2023-05-01T03:35:35;98205.16;;;8.32;86.39
59106;BME280;44891;50.204;8.132;2023-05-01T03:39:39;98202.56;;;8.32;86.88
59106;BME280;44891;50.204;8.132;2023-05-01T03:44:20;98191.97;;;8.27;87.37
59106;BME280;44891;50.204;8.132;2023-05-01T03:48:22;98194.38;;;8.28;87.14
59106;BME280;44891;50.204;8.132;2023-05-01T03:52:24;98182.97;;;8.23;87.50
59106;BME280;44891;50.204;8.132;2023-05-01T03:56:26;98189.00;;;8.23;88.07
59106;BME280;44891;50.204;8.132;2023-05-01T04:00:29;98188.09;;;8.29;87.29
59106;BME280;44891;50.204;8.132;2023-05-01T04:04:32;98185.16;;;8.26;88.09
59106;BME280;44891;50.204;8.132;2023-05-01T04:08:34;98184.56;;;8.24;88.50
59106;BME280;44891;50.204;8.132;2023-05-01T04:12:36;98182.19;;;8.22;88.00
59106;BME280;44891;50.204;8.132;2023-05-01T04:16:39;98189.81;;;8.24;88.01
59106;BME280;44891;50.204;8.132;2023-05-01T04:20:41;98186.53;;;8.28;87.86
59106;BME280;44891;50.204;8.132;2023-05-01T04:24:44;98185.81;;;8.21;88.46
59106;BME280;44891;50.204;8.132;2023-05-01T04:28:46;98183.78;;;8.23;88.12
59106;BME280;44891;50.204;8.132;2023-05-01T04:32:53;98175.53;;;8.08;89.68
59106;BME280;44891;50.204;8.132;2023-05-01T04:36:54;98189.56;;;8.13;90.03
59106;BME280;44891;50.204;8.132;2023-05-01T04:40:57;98180.91;;;8.25;89.92
59106;BME280;44891;50.204;8.132;2023-05-01T04:44:59;98173.72;;;8.38;89.07
59106;BME280;44891;50.204;8.132;2023-05-01T04:49:07;98183.28;;;8.44;88.54
59106;BME280;44891;50.204;8.132;2023-05-01T04:53:09;98181.34;;;8.40;88.59
59106;BME280;44891;50.204;8.132;2023-05-01T04:57:11;98180.13;;;8.54;88.46
59106;BME280;44891;50.204;8.132;2023-05-01T05:01:13;98180.13;;;8.54;88.13
59106;BME280;44891;50.204;8.132;2023-05-01T05:05:16;98177.94;;;8.51;88.57
59106;BME280;44891;50.204;8.132;2023-05-01T05:09:18;98183.78;;;8.53;88.55
59106;BME280;44891;50.204;8.132;2023-05-01T05:13:20;98177.16;;;8.62;88.33
59106;BME280;44891;50.204;8.132;2023-05-01T05:17:29;98182.28;;;8.69;88.22
59106;BME280;44891;50.204;8.132;2023-05-01T05:21:33;98180.13;;;8.78;87.59
59106;BME280;44891;50.204;8.132;2023-05-01T05:25:36;98183.09;;;8.81;87.12
59106;BME280;44891;50.204;8.132;2023-05-01T05:29:38;98184.94;;;8.92;87.08
59106;BME280;44891;50.204;8.132;2023-05-01T05:33:40;98186.66;;;8.98;87.13
59106;BME280;44891;50.204;8.132;2023-05-01T05:37:43;98177.88;;;9.05;86.59
59106;BME280;44891;50.204;8.132;2023-05-01T05:41:45;98186.06;;;9.08;86.06
59106;BME280;44891;50.204;8.132;2023-05-01T05:45:49;98180.25;;;9.18;86.66
59106;BME280;44891;50.204;8.132;2023-05-01T05:49:51;98172.50;;;9.23;86.64
59106;BME280;44891;50.204;8.132;2023-05-01T05:53:56;98181.13;;;9.35;86.14
59106;BME280;44891;50.204;8.132;2023-05-01T05:57:58;98177.22;;;9.49;85.30
59106;BME280;44891;50.204;8.132;2023-05-01T06:02:00;98172.88;;;9.55;84.89
59106;BME280;44891;50.204;8.132;2023-05-01T06:06:02;98170.75;;;9.52;84.67
59106;BME280;44891;50.204;8.132;2023-05-01T06:10:06;98180.31;;;9.58;85.23
59106;BME280;44891;50.204;8.132;2023-05-01T06:14:08;98175.53;;;9.84;84.02
59106;BME280;44891;50.204;8.132;2023-05-01T06:18:10;98166.38;;;9.98;82.84
59106;BME280;44891;50.204;8.132;2023-05-01T06:22:12;98161.78;;;10.05;82.59
59106;BME280;44891;50.204;8.132;2023-05-01T06:26:27;98156.00;;;10.20;81.50
59106;BME280;44891;50.204;8.132;2023-05-01T06:30:29;98159.84;;;10.46;80.20
59106;BME280;44891;50.204;8.132;2023-05-01T06:34:31;98151.59;;;10.54;79.15
59106;BME280;44891;50.204;8.132;2023-05-01T06:38:33;98155.09;;;10.76;78.80
59106;BME280;44891;50.204;8.132;2023-05-01T06:42:37;98148.63;;;10.84;77.36
59106;BME280;44891;50.204;8.132;2023-05-01T06:46:39;98149.56;;;10.95;75.41
59106;BME280;44891;50.204;8.132;2023-05-01T06:50:41;98143.41;;;11.06;76.61
59106;BME280;44891;50.204;8.132;2023-05-01T06:54:43;98140.69;;;11.18;77.31
59106;BME280;44891;50.204;8.132;2023-05-01T06:58:46;98141.19;;;11.36;77.90
59106;BME280;44891;50.204;8.132;2023-05-01T07:02:48;98137.56;;;11.42;77.90
59106;BME280;44891;50.204;8.132;2023-05-01T07:06:49;98126.69;;;11.56;77.10
59106;BME280;44891;50.204;8.132;2023-05-01T07:10:51;98135.25;;;11.73;77.15
59106;BME280;44891;50.204;8.132;2023-05-01T07:14:55;98130.28;;;11.98;76.69
59106;BME280;44891;50.204;8.132;2023-05-01T07:18:57;98131.38;;;12.30;75.24
59106;BME280;44891;50.204;8.132;2023-05-01T07:22:59;98133.69;;;12.58;73.77
59106;BME280;44891;50.204;8.132;2023-05-01T07:27:00;98125.97;;;12.84;72.26
59106;BME280;44891;50.204;8.132;2023-05-01T07:31:04;98135.88;;;13.14;70.58
59106;BME280;44891;50.204;8.132;2023-05-01T07:35:06;98130.22;;;13.37;69.90
59106;BME280;44891;50.204;8.132;2023-05-01T07:39:08;98127.16;;;13.76;68.10
59106;BME280;44891;50.204;8.132;2023-05-01T07:43:09;98125.38;;;14.02;66.91
59106;BME280;44891;50.204;8.132;2023-05-01T07:47:13;98127.25;;;14.27;65.59
59106;BME280;44891;50.204;8.132;2023-05-01T07:51:15;98118.53;;;14.36;64.69
59106;BME280;44891;50.204;8.132;2023-05-01T07:55:18;98110.63;;;14.47;62.23
59106;BME280;44891;50.204;8.132;2023-05-01T07:59:19;98105.84;;;14.74;61.32
59106;BME280;44891;50.204;8.132;2023-05-01T08:03:23;98116.59;;;15.03;60.36
59106;BME280;44891;50.204;8.132;2023-05-01T08:07:24;98110.22;;;15.19;59.00
59106;BME280;44891;50.204;8.132;2023-05-01T08:11:26;98114.66;;;15.29;59.09
59106;BME280;44891;50.204;8.132;2023-05-01T08:15:29;98109.03;;;15.46;58.13
59106;BME280;44891;50.204;8.132;2023-05-01T08:19:32;98103.72;;;15.51;57.78
59106;BME280;44891;50.204;8.132;2023-05-01T08:23:34;98104.09;;;15.84;57.98
59106;BME280;44891;50.204;8.132;2023-05-01T08:27:36;98102.81;;;16.15;56.76
59106;BME280;44891;50.204;8.132;2023-05-01T08:31:38;98098.44;;;16.35;56.79
59106;BME280;44891;50.204;8.132;2023-05-01T08:35:41;98088.13;;;16.57;55.60
59106;BME280;44891;50.204;8.132;2023-05-01T08:39:43;98086.47;;;16.71;54.34
59106;BME280;44891;50.204;8.132;2023-05-01T08:43:44;98079.69;;;16.55;53.07
59106;BME280;44891;50.204;8.132;2023-05-01T08:47:46;98084.31;;;16.73;53.44
59106;BME280;44891;50.204;8.132;2023-05-01T08:51:51;98077.81;;;17.08;50.61
59106;BME280;44891;50.204;8.132;2023-05-01T08:55:56;98072.25;;;17.29;51.15
59106;BME280;44891;50.204;8.132;2023-05-01T08:59:59;98073.16;;;17.62;49.51
59106;BME280;44891;50.204;8.132;2023-05-01T09:04:01;98070.31;;;17.96;47.46
59106;BME280;44891;50.204;8.132;2023-05-01T09:08:05;98071.34;;;18.14;45.76
59106;BME280;44891;50.204;8.132;2023-05-01T09:12:09;98077.41;;;18.01;45.27
59106;BME280;44891;50.204;8.132;2023-05-01T09:16:13;98064.75;;;17.55;46.35
59106;BME280;44891;50.204;8.132;2023-05-01T09:20:15;98061.84;;;17.75;47.03
59106;BME280;44891;50.204;8.132;2023-05-01T09:24:20;98060.75;;;18.28;45.86
59106;BME280;44891;50.204;8.132;2023-05-01T09:28:37;98057.09;;;18.56;45.42
59106;BME280;44891;50.204;8.132;2023-05-01T09:32:41;98053.00;;;18.78;44.73
59106;BME280;44891;50.204;8.132;2023-05-01T09:36:42;98055.06;;;18.34;44.19
59106;BME280;44891;50.204;8.132;2023-05-01T09:40:50;98049.94;;;18.84;42.61
59106;BME280;44891;50.204;8.132;2023-05-01T09:44:53;98045.78;;;19.06;42.88
59106;BME280;44891;50.204;8.132;2023-05-01T09:48:55;98042.56;;;19.59;42.29
59106;BME280;44891;50.204;8.132;2023-05-01T09:52:58;98038.53;;;19.61;40.96
59106;BME280;44891;50.204;8.132;2023-05-01T09:57:02;98036.50;;;19.67;41.02
59106;BME280;44891;50.204;8.132;2023-05-01T10:01:04;98035.84;;;19.61;41.20
59106;BME280;44891;50.204;8.132;2023-05-01T10:05:07;98044.06;;;19.37;41.97
59106;BME280;44891;50.204;8.132;2023-05-01T10:09:09;98034.81;;;19.21;41.83
59106;BME280;44891;50.204;8.132;2023-05-01T10:13:18;98035.72;;;19.16;42.93
59106;BME280;44891;50.204;8.132;2023-05-01T10:17:19;98033.28;;;18.92;41.20
59106;BME280;44891;50.204;8.132;2023-05-01T10:21:21;98029.09;;;19.14;41.49
59106;BME280;44891;50.204;8.132;2023-05-01T10:25:23;98031.75;;;19.27;41.52
59106;BME280;44891;50.204;8.132;2023-05-01T10:29:27;98032.75;;;19.18;41.32
59106;BME280;44891;50.204;8.132;2023-05-01T10:33:30;98039.50;;;19.51;41.12
59106;BME280;44891;50.204;8.132;2023-05-01T10:37:33;98036.44;;;19.44;41.11
59106;BME280;44891;50.204;8.132;2023-05-01T10:50:16;98024.06;;;19.26;40.09
59106;BME280;44891;50.204;8.132;2023-05-01T10:54:21;98028.25;;;19.54;40.57
59106;BME280;44891;50.204;8.132;2023-05-01T11:07:26;98019.63;;;18.53;40.89
59106;BME280;44891;50.204;8.132;2023-05-01T11:11:44;98023.13;;;18.20;42.34
59106;BME280;44891;50.204;8.132;2023-05-01T11:15:47;98011.97;;;18.51;42.82
59106;BME280;44891;50.204;8.132;2023-05-01T11:19:49;98013.84;;;18.51;42.39
59106;BME280;44891;50.204;8.132;2023-05-01T11:23:53;98018.59;;;18.21;42.43
59106;BME280;44891;50.204;8.132;2023-05-01T11:27:55;98020.72;;;18.05;43.15
59106;BME280;44891;50.204;8.132;2023-05-01T11:31:58;98022.25;;;17.92;47.18
59106;BME280;44891;50.204;8.132;2023-05-01T11:36:00;98025.00;;;17.87;49.23
59106;BME280;44891;50.204;8.132;2023-05-01T11:40:04;98022.44;;;17.63;48.30
59106;BME280;44891;50.204;8.132;2023-05-01T11:44:06;98017.47;;;17.57;49.65
59106;BME280;44891;50.204;8.132;2023-05-01T11:48:12;98019.91;;;17.53;50.40
59106;BME280;44891;50.204;8.132;2023-05-01T11:52:14;98012.16;;;17.57;50.93
59106;BME280;44891;50.204;8.132;2023-05-01T11:56:18;98017.91;;;17.64;50.68
59106;BME280;44891;50.204;8.132;2023-05-01T12:00:27;98023.13;;;17.69;49.74
59106;BME280;44891;50.204;8.132;2023-05-01T12:04:29;98027.22;;;17.61;50.64
59106;BME280;44891;50.204;8.132;2023-05-01T12:08:31;98021.91;;;17.61;50.56
59106;BME280;44891;50.204;8.132;2023-05-01T12:12:34;98020.91;;;17.57;48.26
59106;BME280;44891;50.204;8.132;2023-05-01T12:16:36;98023.34;;;17.54;47.62
59106;BME280;44891;50.204;8.132;2023-05-01T12:20:40;98024.44;;;17.53;48.93
59106;BME280;44891;50.204;8.132;2023-05-01T12:24:48;98021.66;;;17.44;48.49
59106;BME280;44891;50.204;8.132;2023-05-01T12:28:53;98022.13;;;17.27;48.97
59106;BME280;44891;50.204;8.132;2023-05-01T12:32:56;98022.19;;;17.22;49.73
59106;BME280;44891;50.204;8.132;2023-05-01T12:36:58;98021.97;;;17.19;50.00
59106;BME280;44891;50.204;8.132;2023-05-01T12:41:00;98024.47;;;17.10;50.83
59106;BME280;44891;50.204;8.132;2023-05-01T12:45:03;98028.00;;;17.05;51.26
59106;BME280;44891;50.204;8.132;2023-05-01T12:49:05;98015.72;;;16.91;51.45
59106;BME280;44891;50.204;8.132;2023-05-01T12:53:08;98017.97;;;16.78;53.11
59106;BME280;44891;50.204;8.132;2023-05-01T12:57:10;98017.97;;;16.78;54.23
59106;BME280;44891;50.204;8.132;2023-05-01T13:01:23;98026.78;;;16.69;55.15
59106;BME280;44891;50.204;8.132;2023-05-01T13:05:25;98017.94;;;16.54;54.97
59106;BME280;44891;50.204;8.132;2023-05-01T13:09:27;98021.97;;;16.47;55.61
59106;BME280;44891;50.204;8.132;2023-05-01T13:13:32;98017.75;;;16.46;55.55
59106;BME280;44891;50.204;8.132;2023-05-01T13:17:37;98008.94;;;16.50;56.63
59106;BME280;44891;50.204;8.132;2023-05-01T13:21:45;98012.13;;;16.52;56.87
59106;BME280;44891;50.204;8.132;2023-05-01T13:25:47;98013.97;;;16.52;56.85
59106;BME280;44891;50.204;8.132;2023-05-01T13:29:56;98008.06;;;16.60;56.10
59106;BME280;44891;50.204;8.132;2023-05-01T13:34:00;98004.75;;;16.73;54.54
59106;BME280;44891;50.204;8.132;2023-05-01T13:38:05;98005.59;;;16.93;52.68
59106;BME280;44891;50.204;8.132;2023-05-01T13:42:10;98004.31;;;17.09;49.40
59106;BME280;44891;50.204;8.132;2023-05-01T13:46:12;98000.09;;;17.27;48.30
59106;BME280;44891;50.204;8.132;2023-05-01T13:50:16;98010.66;;;17.32;47.85
59106;BME280;44891;50.204;8.132;2023-05-01T13:54:18;98005.59;;;17.68;48.05
59106;BME280;44891;50.204;8.132;2023-05-01T13:58:20;98004.63;;;17.64;48.00
59106;BME280;44891;50.204;8.132;2023-05-01T14:02:24;98002.88;;;17.92;47.71
59106;BME280;44891;50.204;8.132;2023-05-01T14:06:28;98001.59;;;17.89;47.34
59106;BME280;44891;50.204;8.132;2023-05-01T14:10:30;97999.78;;;18.04;46.89
59106;BME280;44891;50.204;8.132;2023-05-01T14:14:32;97997.69;;;18.01;46.17
59106;BME280;44891;50.204;8.132;2023-05-01T14:18:40;97991.66;;;17.95;45.51
59106;BME280;44891;50.204;8.132;2023-05-01T14:22:45;97983.72;;;18.09;46.75
59106;BME280;44891;50.204;8.132;2023-05-01T14:26:47;97985.22;;;18.15;44.91
59106;BME280;44891;50.204;8.132;2023-05-01T14:30:50;97987.63;;;18.30;45.71
59106;BME280;44891;50.204;8.132;2023-05-01T14:34:54;97980.44;;;18.58;44.56
59106;BME280;44891;50.204;8.132;2023-05-01T14:38:58;97982.78;;;18.60;45.25
59106;BME280;44891;50.204;8.132;2023-05-01T14:43:00;97982.56;;;19.83;42.20
59106;BME280;44891;50.204;8.132;2023-05-01T14:47:02;97976.63;;;20.97;40.51
59106;BME280;44891;50.204;8.132;2023-05-01T14:51:04;97982.69;;;21.46;39.34
59106;BME280;44891;50.204;8.132;2023-05-01T14:55:08;97980.53;;;22.04;38.32
59106;BME280;44891;50.204;8.132;2023-05-01T14:59:11;97973.81;;;21.02;39.60
59106;BME280;44891;50.204;8.132;2023-05-01T15:03:13;97978.28;;;20.36;41.40
59106;BME280;44891;50.204;8.132;2023-05-01T15:07:15;97975.31;;;19.75;41.98
59106;BME280;44891;50.204;8.132;2023-05-01T15:11:18;97976.16;;;19.62;42.63
59106;BME280;44891;50.204;8.132;2023-05-01T15:15:21;97974.66;;;19.20;42.39
59106;BME280;44891;50.204;8.132;2023-05-01T15:19:22;97981.41;;;19.04;43.34
59106;BME280;44891;50.204;8.132;2023-05-01T15:23:24;97979.84;;;18.75;43.47
59106;BME280;44891;50.204;8.132;2023-05-01T15:27:28;97984.28;;;18.52;43.42
59106;BME280;44891;50.204;8.132;2023-05-01T15:31:30;97987.13;;;18.42;44.31
59106;BME280;44891;50.204;8.132;2023-05-01T15:35:32;97983.28;;;18.34;45.30
59106;BME280;44891;50.204;8.132;2023-05-01T15:39:34;97988.47;;;18.12;44.94
59106;BME280;44891;50.204;8.132;2023-05-01T15:43:38;97991.59;;;18.00;45.52
59106;BME280;44891;50.204;8.132;2023-05-01T15:47:40;97994.44;;;17.90;45.93
59106;BME280;44891;50.204;8.132;2023-05-01T15:51:42;97987.09;;;17.82;45.27
59106;BME280;44891;50.204;8.132;2023-05-01T15:55:44;97987.47;;;17.75;45.56
59106;BME280;44891;50.204;8.132;2023-05-01T15:59:47;97987.75;;;17.74;47.00
59106;BME280;44891;50.204;8.132;2023-05-01T16:03:53;97989.16;;;17.71;46.76
59106;BME280;44891;50.204;8.132;2023-05-01T16:07:58;97995.50;;;17.70;46.31
59106;BME280;44891;50.204;8.132;2023-05-01T16:12:00;98006.66;;;17.72;46.96
59106;BME280;44891;50.204;8.132;2023-05-01T16:16:04;98005.91;;;17.66;49.01
59106;BME280;44891;50.204;8.132;2023-05-01T16:20:08;98000.25;;;17.54;50.15
59106;BME280;44891;50.204;8.132;2023-05-01T16:24:10;98002.75;;;17.46;49.02
59106;BME280;44891;50.204;8.132;2023-05-01T16:28:12;97999.88;;;17.42;48.86
59106;BME280;44891;50.204;8.132;2023-05-01T16:32:16;98009.66;;;17.47;48.72
59106;BME280;44891;50.204;8.132;2023-05-01T16:36:18;98017.06;;;17.50;48.81
59106;BME280;44891;50.204;8.132;2023-05-01T16:40:21;98024.00;;;17.64;48.20
59106;BME280;44891;50.204;8.132;2023-05-01T16:44:22;98024.91;;;17.55;49.55
59106;BME280;44891;50.204;8.132;2023-05-01T16:48:25;98029.75;;;17.53;50.59
59106;BME280;44891;50.204;8.132;2023-05-01T16:52:27;98029.31;;;17.46;51.50
59106;BME280;44891;50.204;8.132;2023-05-01T16:56:29;98035.19;;;17.61;51.63
59106;BME280;44891;50.204;8.132;2023-05-01T17:00:31;98030.88;;;17.65;50.15
59106;BME280;44891;50.204;8.132;2023-05-01T17:04:34;98028.72;;;17.67;51.21
59106;BME280;44891;50.204;8.132;2023-05-01T17:08:36;98034.81;;;17.68;51.02
59106;BME280;44891;50.204;8.132;2023-05-01T17:12:38;98041.16;;;17.53;51.45
59106;BME280;44891;50.204;8.132;2023-05-01T17:16:40;98045.09;;;17.37;51.57
59106;BME280;44891;50.204;8.132;2023-05-01T17:20:43;98044.28;;;17.18;51.34
59106;BME280;44891;50.204;8.132;2023-05-01T17:24:46;98040.69;;;17.08;51.02
59106;BME280;44891;50.204;8.132;2023-05-01T17:28:48;98053.78;;;17.00;51.66
59106;BME280;44891;50.204;8.132;2023-05-01T17:32:50;98055.84;;;16.84;53.08
59106;BME280;44891;50.204;8.132;2023-05-01T17:36:53;98068.56;;;16.82;53.04
59106;BME280;44891;50.204;8.132;2023-05-01T17:40:55;98072.59;;;16.79;55.34
59106;BME280;44891;50.204;8.132;2023-05-01T17:44:57;98074.94;;;16.81;52.91
59106;BME280;44891;50.204;8.132;2023-05-01T17:48:59;98080.16;;;16.62;53.53
59106;BME280;44891;50.204;8.132;2023-05-01T17:53:02;98084.84;;;16.41;52.46
59106;BME280;44891;50.204;8.132;2023-05-01T17:57:04;98091.22;;;16.11;52.96
59106;BME280;44891;50.204;8.132;2023-05-01T18:01:07;98093.16;;;15.95;53.31
59106;BME280;44891;50.204;8.132;2023-05-01T18:05:09;98096.94;;;15.84;54.19
59106;BME280;44891;50.204;8.132;2023-05-01T18:09:12;98102.03;;;15.70;55.11
59106;BME280;44891;50.204;8.132;2023-05-01T18:13:14;98105.31;;;15.52;55.54
59106;BME280;44891;50.204;8.132;2023-05-01T18:17:16;98107.00;;;15.22;56.69
59106;BME280;44891;50.204;8.132;2023-05-01T18:21:19;98112.06;;;15.19;57.37
59106;BME280;44891;50.204;8.132;2023-05-01T18:25:22;98126.09;;;15.14;58.02
59106;BME280;44891;50.204;8.132;2023-05-01T18:29:24;98129.31;;;15.01;58.55
59106;BME280;44891;50.204;8.132;2023-05-01T18:33:26;98094.19;;;14.70;58.79
59106;BME280;44891;50.204;8.132;2023-05-01T18:37:27;98142.81;;;14.89;59.82
59106;BME280;44891;50.204;8.132;2023-05-01T18:41:31;98147.31;;;14.89;59.88
59106;BME280;44891;50.204;8.132;2023-05-01T18:45:32;98150.50;;;14.81;60.13
59106;BME280;44891;50.204;8.132;2023-05-01T18:49:34;98150.50;;;14.76;60.78
59106;BME280;44891;50.204;8.132;2023-05-01T18:53:36;98166.34;;;14.65;60.93
59106;BME280;44891;50.204;8.132;2023-05-01T18:57:39;98173.78;;;14.53;61.99
59106;BME280;44891;50.204;8.132;2023-05-01T19:01:43;98169.56;;;14.47;62.34
59106;BME280;44891;50.204;8.132;2023-05-01T19:05:45;98184.06;;;14.39;62.46
59106;BME280;44891;50.204;8.132;2023-05-01T19:09:47;98197.53;;;14.33;62.75
59106;BME280;44891;50.204;8.132;2023-05-01T19:13:50;98195.13;;;14.36;62.66
59106;BME280;44891;50.204;8.132;2023-05-01T19:17:52;98211.25;;;14.35;62.30
59106;BME280;44891;50.204;8.132;2023-05-01T19:21:54;98205.72;;;14.26;62.49
59106;BME280;44891;50.204;8.132;2023-05-01T19:25:56;98206.44;;;14.11;63.09
59106;BME280;44891;50.204;8.132;2023-05-01T19:29:59;98226.50;;;14.12;62.67
59106;BME280;44891;50.204;8.132;2023-05-01T19:34:01;98230.69;;;13.88;63.98
59106;BME280;44891;50.204;8.132;2023-05-01T19:38:02;98235.91;;;13.78;64.72
59106;BME280;44891;50.204;8.132;2023-05-01T19:42:04;98236.44;;;13.75;65.05
59106;BME280;44891;50.204;8.132;2023-05-01T19:46:07;98241.13;;;13.63;66.31
59106;BME280;44891;50.204;8.132;2023-05-01T19:50:10;98241.84;;;13.48;67.70
59106;BME280;44891;50.204;8.132;2023-05-01T19:54:11;98208.94;;;13.18;68.39
59106;BME280;44891;50.204;8.132;2023-05-01T19:58:13;98247.78;;;13.23;69.10
59106;BME280;44891;50.204;8.132;2023-05-01T20:02:16;98256.78;;;12.95;69.34
59106;BME280;44891;50.204;8.132;2023-05-01T20:06:18;98260.56;;;12.77;70.41
59106;BME280;44891;50.204;8.132;2023-05-01T20:10:20;98266.63;;;12.77;71.75
59106;BME280;44891;50.204;8.132;2023-05-01T20:14:22;98273.75;;;12.77;72.24
59106;BME280;44891;50.204;8.132;2023-05-01T20:18:25;98281.13;;;12.80;72.65
59106;BME280;44891;50.204;8.132;2023-05-01T20:22:27;98283.56;;;12.87;72.39
59106;BME280;44891;50.204;8.132;2023-05-01T20:26:29;98285.19;;;12.88;72.29
59106;BME280;44891;50.204;8.132;2023-05-01T20:30:31;98297.06;;;12.90;72.12
59106;BME280;44891;50.204;8.132;2023-05-01T20:34:34;98292.25;;;12.82;73.10
59106;BME280;44891;50.204;8.132;2023-05-01T20:38:39;98292.19;;;12.77;73.59
59106;BME280;44891;50.204;8.132;2023-05-01T20:42:42;98301.03;;;12.66;74.19
59106;BME280;44891;50.204;8.132;2023-05-01T20:46:44;98302.81;;;12.55;74.56
59106;BME280;44891;50.204;8.132;2023-05-01T20:50:47;98298.84;;;12.31;76.56
59106;BME280;44891;50.204;8.132;2023-05-01T20:54:49;98306.91;;;12.46;76.46
59106;BME280;44891;50.204;8.132;2023-05-01T20:58:51;98300.91;;;12.50;76.49
59106;BME280;44891;50.204;8.132;2023-05-01T21:02:53;98304.06;;;12.52;75.84
59106;BME280;44891;50.204;8.132;2023-05-01T21:06:58;98307.75;;;12.51;75.87
59106;BME280;44891;50.204;8.132;2023-05-01T21:11:00;98318.41;;;12.62;75.83
59106;BME280;44891;50.204;8.132;2023-05-01T21:15:03;98319.44;;;12.61;75.80
59106;BME280;44891;50.204;8.132;2023-05-01T21:19:05;98315.78;;;12.40;76.23
59106;BME280;44891;50.204;8.132;2023-05-01T21:23:08;98325.53;;;12.39;75.54
59106;BME280;44891;50.204;8.132;2023-05-01T21:27:10;98324.25;;;12.42;74.50
59106;BME280;44891;50.204;8.132;2023-05-01T21:31:12;98334.09;;;12.51;73.85
59106;BME280;44891;50.204;8.132;2023-05-01T21:35:14;98334.41;;;12.55;73.42
59106;BME280;44891;50.204;8.132;2023-05-01T21:39:17;98331.34;;;12.63;74.85
59106;BME280;44891;50.204;8.132;2023-05-01T21:43:21;98334.44;;;12.60;75.99
59106;BME280;44891;50.204;8.132;2023-05-01T21:47:23;98336.44;;;12.48;76.65
59106;BME280;44891;50.204;8.132;2023-05-01T21:51:25;98340.09;;;12.47;76.75